createdAt,value
2023-04-01T00:02:32.940Z,74.72
2023-04-01T00:07:36.028Z,76.44
2023-04-01T00:12:38.475Z,76.68
2023-04-01T00:17:40.835Z,76.82
2023-04-01T00:22:44.587Z,75.55
2023-04-01T00:27:47.316Z,74.68
2023-04-01T00:32:49.538Z,74.75
2023-04-01T00:37:52.862Z,74.19
2023-04-01T00:42:54.896Z,75.03
2023-04-01T00:47:57.355Z,75.12
2023-04-01T00:53:02.004Z,74.99
2023-04-01T00:58:06.840Z,75.65
2023-04-01T01:03:08.730Z,75.88
2023-04-01T01:08:20.217Z,75.81
2023-04-01T01:13:32.043Z,76.94
2023-04-01T01:18:38.247Z,75.27
2023-04-01T01:24:06.638Z,74.70
2023-04-01T01:29:20.413Z,73.26
2023-04-01T01:34:29.952Z,73.81
2023-04-01T01:39:36.724Z,73.38
2023-04-01T01:44:41.429Z,72.90
2023-04-01T01:49:45.749Z,73.28
2023-04-01T01:54:53.556Z,72.89
2023-04-01T02:00:01.587Z,73.03
2023-04-01T02:05:05.207Z,72.78
2023-04-01T02:10:10.262Z,73.45
2023-04-01T02:15:15.925Z,73.61
2023-04-01T02:20:21.974Z,73.20
2023-04-01T02:25:29.357Z,72.59
2023-04-01T02:30:34.559Z,72.34
2023-04-01T02:35:38.863Z,72.64
2023-04-01T02:40:50.146Z,71.87
2023-04-01T02:45:52.918Z,72.04
2023-04-01T02:50:55.701Z,71.84
2023-04-01T02:55:58.678Z,71.93
2023-04-01T03:01:00.957Z,72.23
2023-04-01T03:06:08.415Z,71.73
2023-04-01T03:11:13.097Z,72.17
2023-04-01T03:16:16.644Z,71.82
2023-04-01T03:21:21.498Z,71.98
2023-04-01T03:26:25.510Z,71.63
2023-04-01T03:31:28.965Z,71.64
2023-04-01T03:36:33.302Z,71.08
2023-04-01T03:41:39.160Z,71.92
2023-04-01T03:46:41.895Z,71.60
2023-04-01T03:51:46.470Z,71.47
2023-04-01T03:56:50.423Z,71.68
2023-04-01T04:01:53.335Z,71.32
2023-04-01T04:06:56.252Z,70.42
2023-04-01T04:12:00.960Z,70.38
2023-04-01T04:17:03.375Z,70.28
2023-04-01T04:22:05.605Z,70.00
2023-04-01T04:27:09.531Z,69.64
2023-04-01T04:32:21.014Z,69.58
2023-04-01T04:37:23.539Z,69.45
2023-04-01T04:42:27.796Z,68.88
2023-04-01T04:47:35.623Z,68.94
2023-04-01T04:52:37.689Z,69.05
2023-04-01T04:57:41.725Z,69.00
2023-04-01T05:02:44.480Z,69.26
2023-04-01T05:07:47.173Z,69.38
2023-04-01T05:12:51.430Z,69.47
2023-04-01T05:17:57.885Z,69.14
2023-04-01T05:23:01.561Z,69.20
2023-04-01T05:28:07.123Z,68.79
2023-04-01T05:33:09.702Z,69.21
2023-04-01T05:38:12.523Z,69.14
2023-04-01T05:43:16.631Z,69.35
2023-04-01T05:48:22.823Z,68.95
2023-04-01T05:53:25.582Z,68.93
2023-04-01T05:58:29.755Z,69.52
2023-04-01T06:03:32.768Z,70.25
2023-04-01T06:08:36.258Z,70.94
2023-04-01T06:13:55.865Z,71.45
2023-04-01T06:19:15.258Z,71.18
2023-04-01T06:24:46.223Z,70.72
2023-04-01T06:30:04.925Z,69.53
2023-04-01T06:35:23.929Z,68.59
2023-04-01T06:40:43.870Z,67.16
2023-04-01T06:45:56.864Z,65.72
2023-04-01T06:51:30.720Z,65.52
2023-04-01T06:57:01.709Z,65.86
2023-04-01T07:02:19.057Z,66.72
2023-04-01T07:07:26.907Z,64.77
2023-04-01T07:12:43.540Z,64.13
2023-04-01T07:18:10.166Z,63.92
2023-04-01T07:23:23.455Z,63.92
2023-04-01T07:28:49.423Z,63.67
2023-04-01T07:34:12.983Z,62.68
2023-04-01T07:39:29.527Z,63.62
2023-04-01T07:45:00.787Z,63.04
2023-04-01T07:50:16.913Z,63.31
2023-04-01T07:55:28.829Z,62.05
2023-04-01T08:00:42.203Z,62.40
2023-04-01T08:06:03.034Z,63.39
2023-04-01T08:11:15.729Z,62.89
2023-04-01T08:16:44.977Z,62.17
2023-04-01T08:22:00.255Z,62.09
2023-04-01T08:27:08.536Z,61.81
2023-04-01T08:32:18.605Z,60.82
2023-04-01T08:37:28.493Z,60.01
2023-04-01T08:42:57.666Z,60.56
2023-04-01T08:48:26.827Z,60.34
2023-04-01T08:53:49.146Z,60.97
2023-04-01T08:59:10.291Z,61.46
2023-04-01T09:04:34.420Z,61.47
2023-04-01T09:09:56.140Z,60.60
2023-04-01T09:15:16.103Z,59.62
2023-04-01T09:20:43.561Z,59.46
2023-04-01T09:25:56.811Z,59.86
2023-04-01T09:31:14.258Z,59.20
2023-04-01T09:36:46.616Z,59.31
2023-04-01T09:42:05.818Z,59.21
2023-04-01T09:47:29.623Z,59.15
2023-04-01T09:52:39.463Z,58.93
2023-04-01T09:58:29.419Z,57.31
2023-04-01T10:04:25.851Z,58.67
2023-04-01T10:10:12.891Z,57.55
2023-04-01T10:15:39.100Z,57.80
2023-04-01T10:21:16.044Z,58.13
2023-04-01T10:26:46.636Z,58.69
2023-04-01T10:32:57.395Z,58.00
2023-04-01T10:38:22.765Z,58.39
2023-04-01T10:43:59.562Z,58.40
2023-04-01T10:49:33.578Z,59.22
2023-04-01T10:54:50.159Z,59.12
2023-04-01T11:00:48.616Z,57.70
2023-04-01T11:06:35.730Z,58.06
2023-04-01T11:12:06.548Z,59.30
2023-04-01T11:17:30.202Z,58.59
2023-04-01T11:23:10.803Z,57.17
2023-04-01T11:28:46.910Z,58.28
2023-04-01T11:33:57.568Z,59.49
2023-04-01T11:39:15.016Z,57.84
2023-04-01T11:44:43.375Z,56.88
2023-04-01T11:49:58.972Z,60.49
2023-04-01T11:55:34.605Z,63.68
2023-04-01T12:01:00.337Z,66.40
2023-04-01T12:06:07.598Z,63.50
2023-04-01T12:11:19.814Z,61.47
2023-04-01T12:16:42.563Z,60.57
2023-04-01T12:21:52.752Z,58.73
2023-04-01T12:27:10.915Z,59.35
2023-04-01T12:32:21.786Z,59.83
2023-04-01T12:37:37.333Z,59.91
2023-04-01T12:42:55.095Z,62.38
2023-04-01T12:48:30.708Z,64.27
2023-04-01T12:53:47.030Z,63.68
2023-04-01T12:59:15.655Z,61.50
2023-04-01T13:04:52.874Z,60.36
2023-04-01T13:10:04.121Z,59.05
2023-04-01T13:15:29.254Z,57.93
2023-04-01T13:20:50.534Z,58.08
2023-04-01T13:26:13.524Z,57.78
2023-04-01T13:31:34.843Z,58.30
2023-04-01T13:36:48.106Z,55.01
2023-04-01T13:42:06.833Z,52.09
2023-04-01T13:47:36.767Z,53.51
2023-04-01T13:53:07.475Z,52.51
2023-04-01T13:58:29.154Z,51.88
2023-04-01T14:03:40.967Z,51.30
2023-04-01T14:08:58.229Z,53.02
2023-04-01T14:14:09.541Z,54.46
2023-04-01T14:19:27.176Z,56.62
2023-04-01T14:24:47.127Z,55.88
2023-04-01T14:30:00.289Z,56.07
2023-04-01T14:35:21.236Z,55.90
2023-04-01T14:40:30.648Z,56.21
2023-04-01T14:45:48.463Z,56.16
2023-04-01T14:50:54.463Z,56.31
2023-04-01T14:56:04.966Z,57.33
2023-04-01T15:01:18.193Z,57.92
2023-04-01T15:06:57.975Z,55.79
2023-04-01T15:12:13.939Z,53.82
2023-04-01T15:17:53.597Z,52.77
2023-04-01T15:23:15.214Z,53.97
2023-04-01T15:28:32.521Z,54.84
2023-04-01T15:33:49.115Z,53.66
2023-04-01T15:38:55.737Z,55.74
2023-04-01T15:43:56.402Z,56.12
2023-04-01T15:49:11.014Z,57.59
2023-04-01T15:54:34.320Z,58.02
2023-04-01T15:59:52.475Z,57.26
2023-04-01T16:05:00.848Z,58.64
2023-04-01T16:10:18.478Z,58.49
2023-04-01T16:15:30.443Z,57.56
2023-04-01T16:20:46.404Z,57.72
2023-04-01T16:25:55.559Z,58.29
2023-04-01T16:31:00.896Z,59.21
2023-04-01T16:36:11.671Z,59.33
2023-04-01T16:41:21.527Z,60.50
2023-04-01T16:46:37.068Z,61.10
2023-04-01T16:51:46.452Z,62.15
2023-04-01T16:56:53.547Z,63.31
2023-04-01T17:01:58.814Z,64.01
2023-04-01T17:07:08.347Z,66.17
2023-04-01T17:12:22.026Z,67.09
2023-04-01T17:17:34.722Z,68.29
2023-04-01T17:22:42.796Z,69.20
2023-04-01T17:27:54.175Z,69.18
2023-04-01T17:33:25.367Z,71.12
2023-04-01T17:38:42.911Z,72.27
2023-04-01T17:43:52.355Z,73.91
2023-04-01T17:48:59.437Z,76.52
2023-04-01T17:54:15.049Z,78.00
2023-04-01T17:59:26.435Z,77.65
2023-04-01T18:04:39.388Z,78.74
2023-04-01T18:09:50.566Z,78.62
2023-04-01T18:15:12.947Z,78.24
2023-04-01T18:20:34.501Z,78.24
2023-04-01T18:25:39.140Z,79.11
2023-04-01T18:30:42.803Z,79.17
2023-04-01T18:35:52.646Z,78.58
2023-04-01T18:41:03.322Z,79.29
2023-04-01T18:46:18.738Z,79.33
2023-04-01T18:51:26.027Z,79.70
2023-04-01T18:56:33.513Z,79.42
2023-04-01T19:01:44.254Z,80.06
2023-04-01T19:06:48.656Z,80.15
2023-04-01T19:12:12.030Z,79.89
2023-04-01T19:17:24.474Z,79.96
2023-04-01T19:22:42.692Z,79.98
2023-04-01T19:27:49.778Z,80.30
2023-04-01T19:33:00.954Z,80.22
2023-04-01T19:38:07.452Z,81.07
2023-04-01T19:43:21.093Z,82.58
2023-04-01T19:48:42.077Z,82.13
2023-04-01T19:53:53.745Z,82.55
2023-04-01T19:58:58.583Z,82.17
2023-04-01T20:04:06.867Z,81.88
2023-04-01T20:09:29.072Z,82.02
2023-04-01T20:14:38.444Z,81.77
2023-04-01T20:19:46.176Z,81.60
2023-04-01T20:24:49.188Z,81.60
2023-04-01T20:30:06.466Z,81.61
2023-04-01T20:35:38.742Z,81.10
2023-04-01T20:40:46.329Z,80.35
2023-04-01T20:45:58.394Z,80.95
2023-04-01T20:51:08.409Z,80.69
2023-04-01T20:56:19.564Z,80.69
2023-04-01T21:01:34.621Z,81.56
2023-04-01T21:06:54.917Z,81.66
2023-04-01T21:12:06.141Z,82.30
2023-04-01T21:17:15.692Z,83.37
2023-04-01T21:22:39.432Z,84.16
2023-04-01T21:28:10.943Z,85.89
2023-04-01T21:33:39.810Z,86.79
2023-04-01T21:38:59.851Z,86.27
2023-04-01T21:44:32.315Z,85.75
2023-04-01T21:50:00.818Z,87.17
2023-04-01T21:55:32.280Z,87.70
2023-04-01T22:00:41.229Z,88.49
2023-04-01T22:05:50.464Z,88.18
2023-04-01T22:11:00.327Z,88.55
2023-04-01T22:16:18.680Z,88.86
2023-04-01T22:21:30.673Z,89.29
2023-04-01T22:26:41.200Z,89.95
2023-04-01T22:31:49.754Z,90.25
2023-04-01T22:37:01.027Z,90.06
2023-04-01T22:42:16.255Z,89.84
2023-04-01T22:47:29.524Z,90.48
2023-04-01T22:52:38.201Z,90.56
2023-04-01T22:57:49.138Z,89.97
2023-04-01T23:03:09.297Z,89.99
2023-04-01T23:08:49.179Z,89.62
2023-04-01T23:13:55.866Z,89.97
2023-04-01T23:19:04.197Z,89.62
2023-04-01T23:24:18.158Z,89.08
2023-04-01T23:29:22.702Z,88.87
2023-04-01T23:34:31.033Z,89.45
2023-04-01T23:39:37.166Z,89.41
2023-04-01T23:44:40.100Z,88.50
2023-04-01T23:49:49.461Z,88.39
2023-04-01T23:54:56.626Z,88.97
